sensor_id;sensor_type;location;lat;lon;timestamp;pressure;altitude;pressure_sealevel;temperature;humidity
69842;BME280;57138;51.326;-0.068;2023-10-08T00:01:03;100653.38;;;16.05;82.72
69842;BME280;57138;51.326;-0.068;2023-10-08T00:03:29;100650.47;;;16.00;82.76
69842;BME280;57138;51.326;-0.068;2023-10-08T00:05:56;100651.34;;;15.94;83.13
69842;BME280;57138;51.326;-0.068;2023-10-08T00:08:22;100667.09;;;16.04;82.86
69842;BME280;57138;51.326;-0.068;2023-10-08T00:10:48;100665.63;;;16.01;82.74
69842;BME280;57138;51.326;-0.068;2023-10-08T00:13:14;100665.44;;;15.96;82.64
69842;BME280;57138;51.326;-0.068;2023-10-08T00:15:43;100668.75;;;15.98;83.21
69842;BME280;57138;51.326;-0.068;2023-10-08T00:18:22;100666.91;;;15.92;83.25
69842;BME280;57138;51.326;-0.068;2023-10-08T00:20:48;100676.66;;;15.93;83.34
69842;BME280;57138;51.326;-0.068;2023-10-08T00:23:32;100666.69;;;15.93;82.92
69842;BME280;57138;51.326;-0.068;2023-10-08T00:26:00;100669.59;;;15.92;83.19
69842;BME280;57138;51.326;-0.068;2023-10-08T00:28:31;100665.88;;;15.93;82.84
69842;BME280;57138;51.326;-0.068;2023-10-08T00:31:03;100663.41;;;15.85;82.41
69842;BME280;57138;51.326;-0.068;2023-10-08T00:33:38;100660.72;;;15.78;82.94
69842;BME280;57138;51.326;-0.068;2023-10-08T00:36:05;100666.75;;;15.80;83.30
69842;BME280;57138;51.326;-0.068;2023-10-08T00:38:46;100659.69;;;15.79;83.20
69842;BME280;57138;51.326;-0.068;2023-10-08T00:41:17;100663.81;;;15.81;83.23
69842;BME280;57138;51.326;-0.068;2023-10-08T00:43:53;100668.00;;;15.77;83.23
69842;BME280;57138;51.326;-0.068;2023-10-08T00:46:22;100671.50;;;15.78;83.04
69842;BME280;57138;51.326;-0.068;2023-10-08T00:48:52;100665.91;;;15.73;83.39
69842;BME280;57138;51.326;-0.068;2023-10-08T00:51:21;100664.44;;;15.70;83.60
69842;BME280;57138;51.326;-0.068;2023-10-08T00:53:53;100665.28;;;15.71;83.72
69842;BME280;57138;51.326;-0.068;2023-10-08T00:56:24;100666.31;;;15.70;83.66
69842;BME280;57138;51.326;-0.068;2023-10-08T00:58:51;100663.22;;;15.66;83.61
69842;BME280;57138;51.326;-0.068;2023-10-08T01:01:19;100666.34;;;15.63;83.94
69842;BME280;57138;51.326;-0.068;2023-10-08T01:03:47;100666.78;;;15.60;83.99
69842;BME280;57138;51.326;-0.068;2023-10-08T01:06:16;100664.72;;;15.55;84.38
69842;BME280;57138;51.326;-0.068;2023-10-08T01:08:44;100668.63;;;15.59;84.19
69842;BME280;57138;51.326;-0.068;2023-10-08T01:11:22;100664.28;;;15.52;84.70
69842;BME280;57138;51.326;-0.068;2023-10-08T01:13:58;100650.63;;;15.46;84.74
69842;BME280;57138;51.326;-0.068;2023-10-08T01:16:25;100670.50;;;15.59;84.47
69842;BME280;57138;51.326;-0.068;2023-10-08T01:18:54;100671.09;;;15.61;84.42
69842;BME280;57138;51.326;-0.068;2023-10-08T01:21:19;100669.88;;;15.57;84.68
69842;BME280;57138;51.326;-0.068;2023-10-08T01:24:03;100667.56;;;15.67;84.71
69842;BME280;57138;51.326;-0.068;2023-10-08T01:26:34;100657.22;;;15.64;84.36
69842;BME280;57138;51.326;-0.068;2023-10-08T01:29:08;100663.22;;;15.66;84.60
69842;BME280;57138;51.326;-0.068;2023-10-08T01:31:35;100645.84;;;15.55;84.98
69842;BME280;57138;51.326;-0.068;2023-10-08T01:34:03;100663.44;;;15.64;85.21
69842;BME280;57138;51.326;-0.068;2023-10-08T01:36:33;100656.38;;;15.63;85.05
69842;BME280;57138;51.326;-0.068;2023-10-08T01:39:01;100657.22;;;15.64;85.35
69842;BME280;57138;51.326;-0.068;2023-10-08T01:41:27;100655.56;;;15.63;85.47
69842;BME280;57138;51.326;-0.068;2023-10-08T01:43:56;100650.19;;;15.63;85.38
69842;BME280;57138;51.326;-0.068;2023-10-08T01:46:24;100638.78;;;15.54;85.76
69842;BME280;57138;51.326;-0.068;2023-10-08T01:48:52;100654.31;;;15.59;86.13
69842;BME280;57138;51.326;-0.068;2023-10-08T01:51:29;100651.22;;;15.55;86.00
69842;BME280;57138;51.326;-0.068;2023-10-08T01:54:10;100656.81;;;15.60;85.85
69842;BME280;57138;51.326;-0.068;2023-10-08T01:56:42;100648.50;;;15.62;86.13
69842;BME280;57138;51.326;-0.068;2023-10-08T01:59:11;100659.50;;;15.60;85.96
69842;BME280;57138;51.326;-0.068;2023-10-08T02:01:39;100648.50;;;15.62;86.14
69842;BME280;57138;51.326;-0.068;2023-10-08T02:04:05;100641.88;;;15.58;86.61
69842;BME280;57138;51.326;-0.068;2023-10-08T02:06:35;100638.75;;;15.61;86.20
69842;BME280;57138;51.326;-0.068;2023-10-08T02:09:01;100638.97;;;15.66;86.17
69842;BME280;57138;51.326;-0.068;2023-10-08T02:11:47;100630.25;;;15.64;86.33
69842;BME280;57138;51.326;-0.068;2023-10-08T02:14:20;100645.38;;;15.72;86.28
69842;BME280;57138;51.326;-0.068;2023-10-08T02:16:46;100644.75;;;15.70;86.45
69842;BME280;57138;51.326;-0.068;2023-10-08T02:19:13;100642.66;;;15.72;86.19
69842;BME280;57138;51.326;-0.068;2023-10-08T02:21:40;100645.16;;;15.73;86.12
69842;BME280;57138;51.326;-0.068;2023-10-08T02:24:06;100642.66;;;15.72;86.05
69842;BME280;57138;51.326;-0.068;2023-10-08T02:26:32;100639.38;;;15.70;86.21
69842;BME280;57138;51.326;-0.068;2023-10-08T02:29:03;100639.38;;;15.70;86.18
69842;BME280;57138;51.326;-0.068;2023-10-08T02:31:33;100639.75;;;15.73;86.04
69842;BME280;57138;51.326;-0.068;2023-10-08T02:33:58;100638.56;;;15.69;86.51
69842;BME280;57138;51.326;-0.068;2023-10-08T02:36:26;100631.91;;;15.65;86.10
69842;BME280;57138;51.326;-0.068;2023-10-08T02:38:52;100644.75;;;15.70;85.91
69842;BME280;57138;51.326;-0.068;2023-10-08T02:41:17;100638.97;;;15.66;85.90
69842;BME280;57138;51.326;-0.068;2023-10-08T02:43:43;100637.31;;;15.65;85.88
69842;BME280;57138;51.326;-0.068;2023-10-08T02:46:10;100637.97;;;15.54;85.54
69842;BME280;57138;51.326;-0.068;2023-10-08T02:48:40;100635.28;;;15.54;86.39
69842;BME280;57138;51.326;-0.068;2023-10-08T02:51:06;100632.78;;;15.52;85.98
69842;BME280;57138;51.326;-0.068;2023-10-08T02:53:39;100629.06;;;15.46;85.91
69842;BME280;57138;51.326;-0.068;2023-10-08T02:56:07;100628.44;;;15.44;85.80
69842;BME280;57138;51.326;-0.068;2023-10-08T02:58:43;100633.84;;;15.44;85.68
69842;BME280;57138;51.326;-0.068;2023-10-08T03:01:09;100646.06;;;15.40;85.58
69842;BME280;57138;51.326;-0.068;2023-10-08T03:03:40;100644.22;;;15.34;85.92
69842;BME280;57138;51.326;-0.068;2023-10-08T03:06:06;100633.84;;;15.31;85.03
69842;BME280;57138;51.326;-0.068;2023-10-08T03:08:37;100646.69;;;15.36;84.94
69842;BME280;57138;51.326;-0.068;2023-10-08T03:11:03;100645.25;;;15.26;85.42
69842;BME280;57138;51.326;-0.068;2023-10-08T03:13:30;100636.38;;;15.19;85.01
69842;BME280;57138;51.326;-0.068;2023-10-08T03:15:56;100649.00;;;15.19;84.83
69842;BME280;57138;51.326;-0.068;2023-10-08T03:18:27;100649.41;;;15.16;84.76
69842;BME280;57138;51.326;-0.068;2023-10-08T03:21:06;100651.50;;;15.14;84.30
69842;BME280;57138;51.326;-0.068;2023-10-08T03:23:48;100656.88;;;15.14;84.46
69842;BME280;57138;51.326;-0.068;2023-10-08T03:26:16;100649.00;;;15.12;84.21
69842;BME280;57138;51.326;-0.068;2023-10-08T03:28:56;100653.16;;;15.01;84.45
69842;BME280;57138;51.326;-0.068;2023-10-08T03:31:26;100656.25;;;14.98;84.49
69842;BME280;57138;51.326;-0.068;2023-10-08T03:34:18;100655.00;;;14.94;84.95
69842;BME280;57138;51.326;-0.068;2023-10-08T03:36:45;100652.72;;;14.91;85.19
69842;BME280;57138;51.326;-0.068;2023-10-08T03:39:15;100655.22;;;14.86;85.15
69842;BME280;57138;51.326;-0.068;2023-10-08T03:41:45;100638.22;;;14.79;85.17
69842;BME280;57138;51.326;-0.068;2023-10-08T03:44:24;100646.50;;;14.77;84.88
69842;BME280;57138;51.326;-0.068;2023-10-08T03:46:50;100643.41;;;14.73;85.08
69842;BME280;57138;51.326;-0.068;2023-10-08T03:49:18;100650.84;;;14.71;85.41
69842;BME280;57138;51.326;-0.068;2023-10-08T03:51:44;100652.72;;;14.71;85.05
69842;BME280;57138;51.326;-0.068;2023-10-08T03:54:09;100654.78;;;14.69;84.93
69842;BME280;57138;51.326;-0.068;2023-10-08T03:56:35;100661.41;;;14.66;85.25
69842;BME280;57138;51.326;-0.068;2023-10-08T03:59:05;100663.47;;;14.64;85.07
69842;BME280;57138;51.326;-0.068;2023-10-08T04:01:39;100651.84;;;14.57;85.24
69842;BME280;57138;51.326;-0.068;2023-10-08T04:04:06;100663.22;;;14.59;85.28
69842;BME280;57138;51.326;-0.068;2023-10-08T04:06:37;100652.28;;;14.61;84.90
69842;BME280;57138;51.326;-0.068;2023-10-08T04:09:04;100652.47;;;14.59;84.85
69842;BME280;57138;51.326;-0.068;2023-10-08T04:11:41;100661.34;;;14.53;85.06
69842;BME280;57138;51.326;-0.068;2023-10-08T04:14:16;100660.09;;;14.49;85.33
69842;BME280;57138;51.326;-0.068;2023-10-08T04:16:42;100651.41;;;14.47;86.00
69842;BME280;57138;51.326;-0.068;2023-10-08T04:19:08;100658.00;;;14.44;86.22
69842;BME280;57138;51.326;-0.068;2023-10-08T04:21:34;100664.63;;;14.42;86.38
69842;BME280;57138;51.326;-0.068;2023-10-08T04:24:00;100666.69;;;14.39;86.27
69842;BME280;57138;51.326;-0.068;2023-10-08T04:26:29;100661.69;;;14.36;86.00
69842;BME280;57138;51.326;-0.068;2023-10-08T04:28:56;100667.31;;;14.42;85.95
69842;BME280;57138;51.326;-0.068;2023-10-08T04:31:30;100667.94;;;14.44;85.80
69842;BME280;57138;51.326;-0.068;2023-10-08T04:34:09;100658.59;;;14.39;86.45
69842;BME280;57138;51.326;-0.068;2023-10-08T04:36:43;100657.94;;;14.24;86.61
69842;BME280;57138;51.326;-0.068;2023-10-08T04:39:14;100660.88;;;14.29;86.76
69842;BME280;57138;51.326;-0.068;2023-10-08T04:41:41;100659.41;;;14.20;87.08
69842;BME280;57138;51.326;-0.068;2023-10-08T04:44:10;100652.56;;;14.24;87.10
69842;BME280;57138;51.326;-0.068;2023-10-08T04:46:46;100653.41;;;14.18;87.35
69842;BME280;57138;51.326;-0.068;2023-10-08T04:49:16;100660.41;;;14.19;87.30
69842;BME280;57138;51.326;-0.068;2023-10-08T04:51:55;100651.72;;;14.17;87.20
69842;BME280;57138;51.326;-0.068;2023-10-08T04:54:28;100659.19;;;14.15;87.54
69842;BME280;57138;51.326;-0.068;2023-10-08T04:56:59;100647.34;;;14.09;87.63
69842;BME280;57138;51.326;-0.068;2023-10-08T04:59:27;100649.84;;;14.11;87.59
69842;BME280;57138;51.326;-0.068;2023-10-08T05:02:01;100653.13;;;14.06;87.78
69842;BME280;57138;51.326;-0.068;2023-10-08T05:04:55;100656.44;;;14.08;88.00
69842;BME280;57138;51.326;-0.068;2023-10-08T05:07:31;100657.50;;;14.07;87.87
69842;BME280;57138;51.326;-0.068;2023-10-08T05:10:23;100640.72;;;14.05;87.70
69842;BME280;57138;51.326;-0.068;2023-10-08T05:12:54;100645.69;;;14.08;88.17
69842;BME280;57138;51.326;-0.068;2023-10-08T05:15:41;100637.81;;;14.07;88.47
69842;BME280;57138;51.326;-0.068;2023-10-08T05:18:15;100647.56;;;14.08;88.65
69842;BME280;57138;51.326;-0.068;2023-10-08T05:20:43;100645.47;;;14.10;88.63
69842;BME280;57138;51.326;-0.068;2023-10-08T05:23:16;100643.84;;;14.09;88.71
69842;BME280;57138;51.326;-0.068;2023-10-08T05:25:56;100651.06;;;14.08;88.71
69842;BME280;57138;51.326;-0.068;2023-10-08T05:28:39;100657.28;;;14.09;88.80
69842;BME280;57138;51.326;-0.068;2023-10-08T05:31:24;100661.00;;;14.08;88.97
69842;BME280;57138;51.326;-0.068;2023-10-08T05:34:08;100645.88;;;14.07;88.68
69842;BME280;57138;51.326;-0.068;2023-10-08T05:36:43;100643.59;;;14.03;88.97
69842;BME280;57138;51.326;-0.068;2023-10-08T05:39:27;100657.44;;;14.00;88.75
69842;BME280;57138;51.326;-0.068;2023-10-08T05:42:06;100652.47;;;13.97;88.96
69842;BME280;57138;51.326;-0.068;2023-10-08T05:44:51;100643.38;;;13.98;88.72
69842;BME280;57138;51.326;-0.068;2023-10-08T05:47:35;100644.19;;;13.99;88.61
69842;BME280;57138;51.326;-0.068;2023-10-08T05:50:01;100666.16;;;14.02;88.90
69842;BME280;57138;51.326;-0.068;2023-10-08T05:52:46;100655.56;;;13.94;88.98
69842;BME280;57138;51.326;-0.068;2023-10-08T05:55:28;100654.94;;;13.92;88.84
69842;BME280;57138;51.326;-0.068;2023-10-08T05:58:02;100652.88;;;13.94;88.64
69842;BME280;57138;51.326;-0.068;2023-10-08T06:00:51;100649.56;;;13.92;88.63
69842;BME280;57138;51.326;-0.068;2023-10-08T06:03:51;100650.34;;;13.86;89.22
69842;BME280;57138;51.326;-0.068;2023-10-08T06:06:45;100656.13;;;13.83;88.96
69842;BME280;57138;51.326;-0.068;2023-10-08T06:09:22;100656.94;;;13.83;89.33
69842;BME280;57138;51.326;-0.068;2023-10-08T06:11:48;100660.50;;;13.84;89.28
69842;BME280;57138;51.326;-0.068;2023-10-08T06:14:34;100653.22;;;13.78;89.44
69842;BME280;57138;51.326;-0.068;2023-10-08T06:17:32;100661.50;;;13.83;88.69
69842;BME280;57138;51.326;-0.068;2023-10-08T06:20:20;100647.84;;;13.78;88.98
69842;BME280;57138;51.326;-0.068;2023-10-08T06:22:51;100648.63;;;13.72;89.39
69842;BME280;57138;51.326;-0.068;2023-10-08T06:25:18;100645.75;;;13.73;89.32
69842;BME280;57138;51.326;-0.068;2023-10-08T06:27:50;100654.84;;;13.79;89.32
69842;BME280;57138;51.326;-0.068;2023-10-08T06:30:21;100653.88;;;13.87;88.31
69842;BME280;57138;51.326;-0.068;2023-10-08T06:32:47;100664.03;;;13.91;88.22
69842;BME280;57138;51.326;-0.068;2023-10-08T06:35:13;100663.59;;;13.88;88.26
69842;BME280;57138;51.326;-0.068;2023-10-08T06:37:46;100655.72;;;13.86;88.91
69842;BME280;57138;51.326;-0.068;2023-10-08T06:40:16;100662.78;;;13.87;88.98
69842;BME280;57138;51.326;-0.068;2023-10-08T06:43:01;100661.97;;;13.93;88.63
69842;BME280;57138;51.326;-0.068;2023-10-08T06:45:39;100653.25;;;13.91;88.77
69842;BME280;57138;51.326;-0.068;2023-10-08T06:48:06;100669.41;;;13.91;88.77
69842;BME280;57138;51.326;-0.068;2023-10-08T06:50:34;100645.78;;;13.80;88.39
69842;BME280;57138;51.326;-0.068;2023-10-08T06:53:03;100667.16;;;13.95;88.47
69842;BME280;57138;51.326;-0.068;2023-10-08T06:55:32;100657.00;;;13.90;89.13
69842;BME280;57138;51.326;-0.068;2023-10-08T06:58:02;100661.59;;;13.96;89.20
69842;BME280;57138;51.326;-0.068;2023-10-08T07:00:32;100658.69;;;13.98;88.86
69842;BME280;57138;51.326;-0.068;2023-10-08T07:03:04;100665.75;;;14.06;88.84
69842;BME280;57138;51.326;-0.068;2023-10-08T07:05:29;100647.97;;;14.05;88.94
69842;BME280;57138;51.326;-0.068;2023-10-08T07:07:55;100658.94;;;14.10;88.84
69842;BME280;57138;51.326;-0.068;2023-10-08T07:10:20;100658.13;;;14.16;89.03
69842;BME280;57138;51.326;-0.068;2023-10-08T07:12:48;100653.41;;;14.18;88.73
69842;BME280;57138;51.326;-0.068;2023-10-08T07:15:15;100649.47;;;14.27;88.39
69842;BME280;57138;51.326;-0.068;2023-10-08T07:17:49;100642.66;;;14.31;88.45
69842;BME280;57138;51.326;-0.068;2023-10-08T07:20:16;100648.06;;;14.38;88.45
69842;BME280;57138;51.326;-0.068;2023-10-08T07:22:48;100647.25;;;14.44;88.47
69842;BME280;57138;51.326;-0.068;2023-10-08T07:25:22;100647.69;;;14.48;88.00
69842;BME280;57138;51.326;-0.068;2023-10-08T07:27:48;100655.56;;;14.56;87.83
69842;BME280;57138;51.326;-0.068;2023-10-08T07:30:14;100650.84;;;14.65;86.96
69842;BME280;57138;51.326;-0.068;2023-10-08T07:32:52;100645.06;;;14.68;87.37
69842;BME280;57138;51.326;-0.068;2023-10-08T07:35:20;100652.31;;;14.81;86.70
69842;BME280;57138;51.326;-0.068;2023-10-08T07:37:46;100658.50;;;14.88;86.73
69842;BME280;57138;51.326;-0.068;2023-10-08T07:40:16;100664.53;;;15.03;86.78
69842;BME280;57138;51.326;-0.068;2023-10-08T07:42:41;100665.16;;;15.12;86.65
69842;BME280;57138;51.326;-0.068;2023-10-08T07:45:07;100664.72;;;15.28;86.32
69842;BME280;57138;51.326;-0.068;2023-10-08T07:47:32;100656.03;;;15.26;87.15
69842;BME280;57138;51.326;-0.068;2023-10-08T07:49:58;100668.03;;;15.44;87.39
69842;BME280;57138;51.326;-0.068;2023-10-08T07:52:36;100673.41;;;15.51;87.72
69842;BME280;57138;51.326;-0.068;2023-10-08T07:55:02;100675.50;;;15.55;88.11
69842;BME280;57138;51.326;-0.068;2023-10-08T07:57:29;100672.59;;;15.57;87.87
69842;BME280;57138;51.326;-0.068;2023-10-08T07:59:56;100675.06;;;15.78;88.15
69842;BME280;57138;51.326;-0.068;2023-10-08T08:02:43;100680.38;;;15.92;88.43
69842;BME280;57138;51.326;-0.068;2023-10-08T08:05:09;100676.63;;;15.99;88.68
69842;BME280;57138;51.326;-0.068;2023-10-08T08:07:34;100662.50;;;16.04;89.24
69842;BME280;57138;51.326;-0.068;2023-10-08T08:10:00;100677.38;;;16.27;89.40
69842;BME280;57138;51.326;-0.068;2023-10-08T08:12:27;100679.28;;;16.51;88.36
69842;BME280;57138;51.326;-0.068;2023-10-08T08:14:58;100671.81;;;16.53;88.10
69842;BME280;57138;51.326;-0.068;2023-10-08T08:17:24;100667.38;;;16.66;87.73
69842;BME280;57138;51.326;-0.068;2023-10-08T08:19:51;100673.31;;;16.75;86.26
69842;BME280;57138;51.326;-0.068;2023-10-08T08:22:18;100670.81;;;16.80;85.36
69842;BME280;57138;51.326;-0.068;2023-10-08T08:24:49;100667.47;;;16.84;84.10
69842;BME280;57138;51.326;-0.068;2023-10-08T08:27:19;100675.31;;;16.93;83.30
69842;BME280;57138;51.326;-0.068;2023-10-08T08:30:15;100658.69;;;16.96;83.05
69842;BME280;57138;51.326;-0.068;2023-10-08T08:32:48;100658.63;;;17.02;82.11
69842;BME280;57138;51.326;-0.068;2023-10-08T08:35:14;100676.13;;;17.18;81.05
69842;BME280;57138;51.326;-0.068;2023-10-08T08:37:42;100654.81;;;17.10;80.46
69842;BME280;57138;51.326;-0.068;2023-10-08T08:40:09;100675.88;;;17.27;80.91
69842;BME280;57138;51.326;-0.068;2023-10-08T08:42:35;100677.06;;;17.31;79.75
69842;BME280;57138;51.326;-0.068;2023-10-08T08:45:04;100688.22;;;17.41;79.37
69842;BME280;57138;51.326;-0.068;2023-10-08T08:47:35;100674.63;;;17.48;78.66
69842;BME280;57138;51.326;-0.068;2023-10-08T08:50:02;100682.66;;;17.54;78.55
69842;BME280;57138;51.326;-0.068;2023-10-08T08:52:35;100680.88;;;17.67;78.36
69842;BME280;57138;51.326;-0.068;2023-10-08T08:55:05;100662.56;;;17.69;78.05
69842;BME280;57138;51.326;-0.068;2023-10-08T08:57:36;100678.53;;;17.95;76.24
69842;BME280;57138;51.326;-0.068;2023-10-08T09:00:05;100685.41;;;18.10;75.96
69842;BME280;57138;51.326;-0.068;2023-10-08T09:02:37;100687.34;;;18.21;74.75
69842;BME280;57138;51.326;-0.068;2023-10-08T09:05:02;100676.53;;;18.21;73.23
69842;BME280;57138;51.326;-0.068;2023-10-08T09:07:52;100683.91;;;18.32;72.42
69842;BME280;57138;51.326;-0.068;2023-10-08T09:10:17;100678.63;;;18.38;72.43
69842;BME280;57138;51.326;-0.068;2023-10-08T09:12:43;100680.53;;;18.49;71.28
69842;BME280;57138;51.326;-0.068;2023-10-08T09:15:10;100682.78;;;18.52;70.50
69842;BME280;57138;51.326;-0.068;2023-10-08T09:17:39;100689.41;;;18.56;70.84
69842;BME280;57138;51.326;-0.068;2023-10-08T09:20:05;100684.44;;;18.53;69.81
69842;BME280;57138;51.326;-0.068;2023-10-08T09:22:32;100686.47;;;18.58;69.11
69842;BME280;57138;51.326;-0.068;2023-10-08T09:24:57;100654.50;;;18.48;69.54
69842;BME280;57138;51.326;-0.068;2023-10-08T09:27:26;100673.06;;;18.63;69.82
69842;BME280;57138;51.326;-0.068;2023-10-08T09:29:54;100672.47;;;18.73;69.02
69842;BME280;57138;51.326;-0.068;2023-10-08T09:32:20;100668.25;;;18.77;69.32
69842;BME280;57138;51.326;-0.068;2023-10-08T09:34:48;100670.84;;;18.83;68.94
69842;BME280;57138;51.326;-0.068;2023-10-08T09:37:16;100670.66;;;18.85;68.14
69842;BME280;57138;51.326;-0.068;2023-10-08T09:39:44;100668.44;;;18.94;68.76
69842;BME280;57138;51.326;-0.068;2023-10-08T09:42:12;100668.69;;;19.04;69.00
69842;BME280;57138;51.326;-0.068;2023-10-08T09:44:39;100664.94;;;19.17;68.64
69842;BME280;57138;51.326;-0.068;2023-10-08T09:47:06;100653.63;;;19.20;68.74
69842;BME280;57138;51.326;-0.068;2023-10-08T09:49:36;100653.63;;;19.32;68.05
69842;BME280;57138;51.326;-0.068;2023-10-08T09:52:07;100663.06;;;19.41;68.11
69842;BME280;57138;51.326;-0.068;2023-10-08T09:54:43;100672.72;;;19.49;68.70
69842;BME280;57138;51.326;-0.068;2023-10-08T09:57:10;100663.63;;;19.55;68.67
69842;BME280;57138;51.326;-0.068;2023-10-08T09:59:37;100661.03;;;19.60;68.62
69842;BME280;57138;51.326;-0.068;2023-10-08T10:02:03;100663.88;;;19.65;68.90
69842;BME280;57138;51.326;-0.068;2023-10-08T10:04:30;100666.69;;;19.70;68.23
69842;BME280;57138;51.326;-0.068;2023-10-08T10:06:57;100673.28;;;19.74;67.49
69842;BME280;57138;51.326;-0.068;2023-10-08T10:09:26;100671.19;;;19.77;65.93
69842;BME280;57138;51.326;-0.068;2023-10-08T10:11:53;100672.63;;;19.79;66.07
69842;BME280;57138;51.326;-0.068;2023-10-08T10:14:23;100681.09;;;19.83;65.21
69842;BME280;57138;51.326;-0.068;2023-10-08T10:17:12;100689.81;;;19.85;64.24
69842;BME280;57138;51.326;-0.068;2023-10-08T10:19:40;100682.28;;;19.87;65.40
69842;BME280;57138;51.326;-0.068;2023-10-08T10:22:13;100693.47;;;19.90;64.63
69842;BME280;57138;51.326;-0.068;2023-10-08T10:24:41;100699.22;;;19.94;64.26
69842;BME280;57138;51.326;-0.068;2023-10-08T10:27:16;100701.72;;;19.96;63.99
69842;BME280;57138;51.326;-0.068;2023-10-08T10:29:45;100703.59;;;19.95;64.51
69842;BME280;57138;51.326;-0.068;2023-10-08T10:32:14;100707.75;;;19.98;62.86
69842;BME280;57138;51.326;-0.068;2023-10-08T10:34:45;100705.94;;;20.03;63.48
69842;BME280;57138;51.326;-0.068;2023-10-08T10:37:19;100716.56;;;20.05;62.81
69842;BME280;57138;51.326;-0.068;2023-10-08T10:39:54;100707.00;;;20.02;61.72
69842;BME280;57138;51.326;-0.068;2023-10-08T10:42:21;100721.84;;;20.11;62.11
69842;BME280;57138;51.326;-0.068;2023-10-08T10:44:49;100721.13;;;20.16;62.85
69842;BME280;57138;51.326;-0.068;2023-10-08T10:47:16;100714.50;;;20.24;63.27
69842;BME280;57138;51.326;-0.068;2023-10-08T10:49:43;100717.34;;;20.29;63.67
69842;BME280;57138;51.326;-0.068;2023-10-08T10:52:28;100717.19;;;20.36;63.69
69842;BME280;57138;51.326;-0.068;2023-10-08T10:55:07;100720.22;;;20.39;63.45
69842;BME280;57138;51.326;-0.068;2023-10-08T10:57:54;100717.72;;;20.50;63.98
69842;BME280;57138;51.326;-0.068;2023-10-08T11:00:25;100717.25;;;20.53;64.61
69842;BME280;57138;51.326;-0.068;2023-10-08T11:02:58;100715.09;;;20.55;65.06
69842;BME280;57138;51.326;-0.068;2023-10-08T11:05:44;100714.63;;;20.58;64.98
69842;BME280;57138;51.326;-0.068;2023-10-08T11:08:17;100714.13;;;20.61;65.26
69842;BME280;57138;51.326;-0.068;2023-10-08T11:10:44;100713.19;;;20.67;65.76
69842;BME280;57138;51.326;-0.068;2023-10-08T11:13:21;100712.78;;;20.75;65.79
69842;BME280;57138;51.326;-0.068;2023-10-08T11:15:54;100711.69;;;20.88;65.20
69842;BME280;57138;51.326;-0.068;2023-10-08T11:18:21;100715.88;;;20.96;65.24
69842;BME280;57138;51.326;-0.068;2023-10-08T11:21:06;100712.19;;;21.02;64.32
69842;BME280;57138;51.326;-0.068;2023-10-08T11:23:46;100699.22;;;21.09;63.58
69842;BME280;57138;51.326;-0.068;2023-10-08T11:26:25;100709.13;;;21.15;63.46
69842;BME280;57138;51.326;-0.068;2023-10-08T11:29:05;100701.88;;;21.21;63.31
69842;BME280;57138;51.326;-0.068;2023-10-08T11:31:31;100712.59;;;21.28;63.27
69842;BME280;57138;51.326;-0.068;2023-10-08T11:34:02;100700.16;;;21.32;62.79
69842;BME280;57138;51.326;-0.068;2023-10-08T11:36:36;100702.69;;;21.39;61.94
69842;BME280;57138;51.326;-0.068;2023-10-08T11:39:15;100687.19;;;21.39;62.36
69842;BME280;57138;51.326;-0.068;2023-10-08T11:41:57;100682.25;;;21.36;61.96
69842;BME280;57138;51.326;-0.068;2023-10-08T11:44:30;100688.84;;;21.40;62.92
69842;BME280;57138;51.326;-0.068;2023-10-08T11:46:55;100698.25;;;21.49;62.14
69842;BME280;57138;51.326;-0.068;2023-10-08T11:49:30;100697.44;;;21.49;61.42
69842;BME280;57138;51.326;-0.068;2023-10-08T11:51:58;100671.53;;;21.46;62.20
69842;BME280;57138;51.326;-0.068;2023-10-08T11:54:28;100680.44;;;21.59;62.42
69842;BME280;57138;51.326;-0.068;2023-10-08T11:56:59;100687.16;;;21.73;63.07
69842;BME280;57138;51.326;-0.068;2023-10-08T11:59:28;100684.50;;;21.78;62.83
69842;BME280;57138;51.326;-0.068;2023-10-08T12:01:55;100692.31;;;21.92;63.75
69842;BME280;57138;51.326;-0.068;2023-10-08T12:04:29;100689.88;;;21.95;62.65
69842;BME280;57138;51.326;-0.068;2023-10-08T12:06:55;100688.63;;;22.03;63.12
69842;BME280;57138;51.326;-0.068;2023-10-08T12:09:21;100686.25;;;22.06;63.14
69842;BME280;57138;51.326;-0.068;2023-10-08T12:11:48;100665.13;;;21.97;62.94
69842;BME280;57138;51.326;-0.068;2023-10-08T12:14:14;100672.03;;;22.04;63.22
69842;BME280;57138;51.326;-0.068;2023-10-08T12:16:40;100683.38;;;22.18;61.26
69842;BME280;57138;51.326;-0.068;2023-10-08T12:19:08;100679.38;;;22.26;60.59
69842;BME280;57138;51.326;-0.068;2023-10-08T12:21:44;100665.97;;;22.19;59.13
69842;BME280;57138;51.326;-0.068;2023-10-08T12:24:12;100658.91;;;22.23;57.85
69842;BME280;57138;51.326;-0.068;2023-10-08T12:26:39;100671.03;;;22.33;57.13
69842;BME280;57138;51.326;-0.068;2023-10-08T12:29:13;100665.66;;;22.38;57.10
69842;BME280;57138;51.326;-0.068;2023-10-08T12:31:45;100660.19;;;22.38;57.04
69842;BME280;57138;51.326;-0.068;2023-10-08T12:34:22;100662.75;;;22.50;56.86
69842;BME280;57138;51.326;-0.068;2023-10-08T12:36:48;100657.13;;;22.56;57.03
69842;BME280;57138;51.326;-0.068;2023-10-08T12:39:16;100639.72;;;22.63;58.01
69842;BME280;57138;51.326;-0.068;2023-10-08T12:41:43;100661.13;;;22.81;57.92
69842;BME280;57138;51.326;-0.068;2023-10-08T12:44:12;100646.16;;;22.84;56.45
69842;BME280;57138;51.326;-0.068;2023-10-08T12:46:41;100657.44;;;22.92;56.89
69842;BME280;57138;51.326;-0.068;2023-10-08T12:49:09;100645.94;;;22.90;57.34
69842;BME280;57138;51.326;-0.068;2023-10-08T12:51:36;100647.69;;;23.02;57.37
69842;BME280;57138;51.326;-0.068;2023-10-08T12:54:07;100638.72;;;23.06;57.54
69842;BME280;57138;51.326;-0.068;2023-10-08T12:56:37;100621.78;;;23.04;56.45
69842;BME280;57138;51.326;-0.068;2023-10-08T12:59:11;100618.25;;;23.04;56.43
69842;BME280;57138;51.326;-0.068;2023-10-08T13:01:45;100639.94;;;23.21;56.67